Time;durP1;ratioP1;P1;durP2;ratioP2;P2;SDS_P1;SDS_P2;PMS_P1;PMS_P2;Temp;Humidity;BMP_temperature;BMP_pressure;BME280_temperature;BME280_humidity;BME280_pressure;Samples;Min_cycle;Max_cycle;Signal;HPM_P1;HPM_P2
2022/10/21 00:03:28;;;;;;;6.32;4.70;;;17.60;80.20;;;;;;21159385;28;20411;-59
2022/10/21 00:13:31;;;;;;;6.78;5.00;;;17.60;80.00;;;;;;21161363;28;20509;-59
2022/10/21 00:23:34;;;;;;;7.63;4.13;;;17.60;79.90;;;;;;21175176;28;20048;-60
2022/10/21 00:33:36;;;;;;;5.45;3.20;;;17.60;79.50;;;;;;21174092;28;20047;-60
2022/10/21 00:44:05;;;;;;;3.63;2.78;;;17.60;79.50;;;;;;21172919;28;20096;-59
2022/10/21 00:54:07;;;;;;;3.83;2.80;;;17.60;79.10;;;;;;21168867;28;20162;-59
2022/10/21 01:04:09;;;;;;;4.60;2.47;;;17.60;79.10;;;;;;21172161;28;20104;-59
2022/10/21 01:14:52;;;;;;;4.43;3.40;;;17.60;79.30;;;;;;21153688;28;20472;-61
2022/10/21 01:25:19;;;;;;;9.00;4.60;;;17.60;78.70;;;;;;21169797;28;20055;-60
2022/10/21 01:35:38;;;;;;;7.80;5.65;;;17.60;78.90;;;;;;21151294;28;20048;-59
2022/10/21 01:45:52;;;;;;;9.82;8.15;;;17.60;79.30;;;;;;21167991;28;20051;-59
2022/10/21 01:55:58;;;;;;;9.25;7.18;;;17.60;79.40;;;;;;21150181;28;20094;-60
2022/10/21 02:06:03;;;;;;;7.00;5.90;;;17.50;79.50;;;;;;21167444;28;20047;-60
2022/10/21 02:16:11;;;;;;;8.35;6.38;;;17.50;79.30;;;;;;21166343;28;20048;-60
2022/10/21 02:26:15;;;;;;;9.25;6.50;;;17.50;79.20;;;;;;21165167;28;20060;-59
2022/10/21 02:37:01;;;;;;;10.15;6.25;;;17.40;79.60;;;;;;21164514;28;20403;-61
2022/10/21 02:47:04;;;;;;;8.68;5.70;;;17.40;79.60;;;;;;20740991;28;20077;-60
2022/10/21 02:57:06;;;;;;;6.47;4.63;;;17.40;79.40;;;;;;20739926;28;20050;-59
2022/10/21 03:07:08;;;;;;;3.30;2.28;;;17.30;80.00;;;;;;20722616;28;20060;-59
2022/10/21 03:17:11;;;;;;;3.17;1.48;;;17.30;79.10;;;;;;21086316;28;20108;-60
2022/10/21 03:27:14;;;;;;;4.67;1.60;;;17.30;78.60;;;;;;21161968;28;20043;-59
2022/10/21 03:37:33;;;;;;;4.25;1.40;;;17.30;78.80;;;;;;21161066;28;20051;-60
2022/10/21 03:47:35;;;;;;;2.70;1.48;;;17.30;78.40;;;;;;21163102;28;20059;-60
2022/10/21 03:57:37;;;;;;;4.32;1.60;;;17.20;78.80;;;;;;21177452;28;20079;-59
2022/10/21 04:07:40;;;;;;;3.78;1.90;;;17.20;79.10;;;;;;21158128;28;20051;-59
2022/10/21 04:17:45;;;;;;;4.05;2.10;;;17.20;79.10;;;;;;21175680;28;20051;-60
2022/10/21 04:27:47;;;;;;;4.85;2.25;;;17.20;79.20;;;;;;21175537;28;20051;-59
2022/10/21 04:37:49;;;;;;;5.05;2.22;;;17.20;79.70;;;;;;21174373;28;20449;-60
2022/10/21 04:47:55;;;;;;;5.20;2.70;;;17.20;79.50;;;;;;21172457;28;20527;-59
2022/10/21 04:57:57;;;;;;;3.58;3.17;;;17.30;79.20;;;;;;21173595;28;20052;-65
2022/10/21 05:07:59;;;;;;;6.93;3.85;;;17.20;79.00;;;;;;21170506;28;20047;-60
2022/10/21 05:18:01;;;;;;;5.47;3.05;;;17.20;79.50;;;;;;21171245;28;20054;-61
2022/10/21 05:28:03;;;;;;;4.20;2.88;;;17.20;79.50;;;;;;21171377;28;20070;-59
2022/10/21 05:38:05;;;;;;;4.22;2.63;;;17.20;79.40;;;;;;21169189;28;20221;-60
2022/10/21 05:48:07;;;;;;;5.28;2.85;;;17.20;79.80;;;;;;21167988;28;20066;-61
2022/10/21 05:58:09;;;;;;;4.47;1.85;;;17.20;78.20;;;;;;21168136;28;20052;-61
2022/10/21 06:08:11;;;;;;;5.82;1.75;;;17.20;77.80;;;;;;21167526;28;20054;-61
2022/10/21 06:18:13;;;;;;;6.05;2.28;;;17.10;77.80;;;;;;21166103;28;20040;-60
2022/10/21 06:28:14;;;;;;;9.05;4.50;;;17.20;76.90;;;;;;21165125;28;20052;-60
2022/10/21 06:38:17;;;;;;;6.47;2.50;;;17.10;77.70;;;;;;21165104;28;20059;-59
2022/10/21 06:48:18;;;;;;;9.50;3.92;;;17.20;77.40;;;;;;21163130;28;20511;-61
2022/10/21 06:58:20;;;;;;;7.93;2.90;;;17.20;77.10;;;;;;21163867;28;20100;-60
2022/10/21 07:08:21;;;;;;;9.15;4.93;;;17.20;76.80;;;;;;21143729;28;20062;-60
2022/10/21 07:18:22;;;;;;;6.15;3.20;;;17.20;77.10;;;;;;21162927;28;20048;-59
2022/10/21 07:28:24;;;;;;;7.43;2.72;;;17.20;77.90;;;;;;21175342;28;20506;-59
2022/10/21 07:38:26;;;;;;;10.93;4.28;;;17.40;77.70;;;;;;21179399;28;20116;-60
2022/10/21 07:48:28;;;;;;;9.18;5.80;;;17.40;78.10;;;;;;21159970;28;20487;-60
2022/10/21 07:58:30;;;;;;;7.72;5.75;;;17.50;78.50;;;;;;21178700;28;20066;-60
2022/10/21 08:08:32;;;;;;;9.38;4.10;;;17.50;78.00;;;;;;21157726;28;20079;-59
2022/10/21 08:18:33;;;;;;;10.82;6.20;;;17.60;77.70;;;;;;21177165;28;20127;-59
2022/10/21 08:28:35;;;;;;;6.70;3.88;;;17.70;77.30;;;;;;21175014;28;20054;-62
2022/10/21 08:38:37;;;;;;;9.80;6.28;;;17.90;74.70;;;;;;21173409;28;20044;-62
2022/10/21 08:49:06;;;;;;;8.98;5.10;;;18.40;73.40;;;;;;21173311;28;20079;-61
2022/10/21 08:59:34;;;;;;;8.52;5.93;;;18.20;74.10;;;;;;20748557;28;20090;-61
2022/10/21 09:09:47;;;;;;;7.03;3.03;;;18.50;73.00;;;;;;20744262;28;20053;-59
2022/10/21 09:20:20;;;;;;;6.70;3.43;;;18.40;72.20;;;;;;20729853;28;20501;-64
2022/10/21 09:30:22;;;;;;;5.85;2.88;;;18.40;72.80;;;;;;20862025;28;20057;-61
2022/10/21 09:40:27;;;;;;;6.78;3.42;;;18.60;71.50;;;;;;21168356;28;20048;-61
2022/10/21 09:50:31;;;;;;;4.22;1.90;;;18.80;70.90;;;;;;21167204;28;20087;-59
2022/10/21 10:00:48;;;;;;;4.60;1.90;;;19.10;68.70;;;;;;21167174;28;20169;-59
2022/10/21 10:11:09;;;;;;;4.40;1.80;;;19.00;67.30;;;;;;21167680;28;20051;-58
2022/10/21 10:21:16;;;;;;;3.53;1.77;;;19.20;66.40;;;;;;21165533;28;20079;-61
2022/10/21 10:31:33;;;;;;;5.60;2.15;;;19.90;65.40;;;;;;21129402;28;20057;-59
2022/10/21 10:41:37;;;;;;;3.85;1.20;;;20.20;61.00;;;;;;21163701;28;20051;-57
2022/10/21 10:51:42;;;;;;;3.05;1.70;;;20.50;60.60;;;;;;21163674;28;20054;-59
2022/10/21 11:02:11;;;;;;;5.15;1.08;;;20.50;59.70;;;;;;21144198;28;20129;-66
2022/10/21 11:12:22;;;;;;;3.92;1.52;;;20.60;60.40;;;;;;21162420;28;20048;-59
2022/10/21 11:23:08;;;;;;;6.50;2.83;;;20.70;59.70;;;;;;21163130;28;20443;-61
2022/10/21 11:33:31;;;;;;;3.53;1.33;;;20.60;59.90;;;;;;21148974;28;20404;-57
2022/10/21 11:43:38;;;;;;;6.50;2.00;;;20.80;59.80;;;;;;21161299;28;20524;-60
2022/10/21 11:53:52;;;;;;;9.27;2.50;;;20.90;59.80;;;;;;21142136;28;20487;-64
2022/10/21 12:04:11;;;;;;;;;;;21.30;59.40;;;;;;21160408;28;20047;-59
2022/10/21 12:14:25;;;;;;;6.38;2.40;;;21.20;60.60;;;;;;21169870;28;20453;-61
2022/10/21 12:24:31;;;;;;;4.97;1.63;;;21.20;59.50;;;;;;21174696;28;20126;-62
2022/10/21 12:34:32;;;;;;;4.85;2.08;;;20.90;59.70;;;;;;21174365;28;20447;-63
2022/10/21 12:44:37;;;;;;;10.65;4.85;;;20.50;60.40;;;;;;21172510;28;20043;-62
2022/10/21 12:54:58;;;;;;;8.80;4.40;;;20.60;59.90;;;;;;21153591;28;20472;-61
2022/10/21 13:05:00;;;;;;;10.68;5.65;;;20.70;60.50;;;;;;21172609;28;20048;-63
2022/10/21 13:15:21;;;;;;;6.82;2.65;;;20.70;61.00;;;;;;21170912;28;20491;-62
2022/10/21 13:25:30;;;;;;;7.13;1.88;;;20.70;60.60;;;;;;21169956;28;20044;-62
2022/10/21 13:36:00;;;;;;;5.35;1.67;;;20.50;60.00;;;;;;21169814;28;20130;-61
2022/10/21 13:46:18;;;;;;;4.50;1.58;;;20.60;59.00;;;;;;20744060;28;20096;-60
2022/10/21 13:56:29;;;;;;;6.18;1.73;;;20.50;58.20;;;;;;20743417;28;20086;-60
2022/10/21 14:06:35;;;;;;;5.55;2.22;;;20.40;57.80;;;;;;20742659;28;20479;-62
2022/10/21 14:16:40;;;;;;;2.80;1.48;;;20.50;56.70;;;;;;20847189;28;20062;-60
2022/10/21 14:26:45;;;;;;;5.45;2.28;;;20.40;57.10;;;;;;21164386;28;20438;-59
2022/10/21 14:36:59;;;;;;;3.42;1.45;;;20.40;56.90;;;;;;21162853;28;20134;-60
2022/10/21 14:47:01;;;;;;;5.88;2.33;;;20.40;56.40;;;;;;21163601;28;20109;-61
2022/10/21 14:57:03;;;;;;;4.93;1.88;;;20.40;56.90;;;;;;21145582;28;20093;-59
2022/10/21 15:07:17;;;;;;;4.13;1.30;;;20.30;58.10;;;;;;21162792;28;20057;-61
2022/10/21 15:17:20;;;;;;;;;;;20.20;58.40;;;;;;21163660;28;20043;-61
2022/10/21 15:27:31;;;;;;;6.05;1.80;;;20.10;59.00;;;;;;21161144;28;19962;-64
2022/10/21 15:37:33;;;;;;;7.22;2.15;;;20.10;59.70;;;;;;21142077;28;20052;-65
2022/10/21 15:47:34;;;;;;;5.07;1.70;;;20.50;59.30;;;;;;21167678;28;20539;-66
2022/10/21 15:57:40;;;;;;;7.10;2.40;;;20.90;57.80;;;;;;21176324;28;20058;-72
2022/10/21 16:07:42;;;;;;;4.97;1.20;;;20.90;57.80;;;;;;21176004;28;20058;-67
2022/10/21 16:17:47;;;;;;;4.93;1.40;;;21.20;57.00;;;;;;21156023;28;20051;-64
2022/10/21 16:27:49;;;;;;;7.22;2.15;;;21.10;57.90;;;;;;21174402;28;20130;-63
2022/10/21 16:37:51;;;;;;;7.60;2.10;;;21.00;59.10;;;;;;21177622;28;20052;-64
2022/10/21 16:47:55;;;;;;;;;;;21.30;58.50;;;;;;21181724;28;20055;-63
2022/10/21 16:57:57;;;;;;;4.03;2.08;;;21.20;57.70;;;;;;21172969;28;19930;-69
2022/10/21 17:07:58;;;;;;;5.53;2.00;;;21.10;58.60;;;;;;21192920;28;20052;-65
2022/10/21 17:18:00;;;;;;;3.92;1.35;;;20.70;59.10;;;;;;21172791;28;20048;-59
2022/10/21 17:28:02;;;;;;;4.88;1.30;;;20.60;60.50;;;;;;21171314;28;20047;-65
2022/10/21 17:38:04;;;;;;;5.47;1.67;;;19.70;63.20;;;;;;21170027;28;20048;-60
2022/10/21 17:48:06;;;;;;;4.32;1.73;;;19.50;64.10;;;;;;21167658;28;20136;-62
2022/10/21 17:58:08;;;;;;;5.15;1.70;;;19.80;63.90;;;;;;21167545;28;20047;-62
2022/10/21 18:08:09;;;;;;;5.53;2.15;;;19.30;65.80;;;;;;21150769;28;20134;-67
2022/10/21 18:18:12;;;;;;;5.57;2.13;;;18.90;67.80;;;;;;21164790;28;20083;-63
2022/10/21 18:28:14;;;;;;;5.17;2.13;;;19.00;67.70;;;;;;21145745;28;20052;-60
2022/10/21 18:38:17;;;;;;;5.05;2.00;;;19.10;67.70;;;;;;21163959;28;20059;-70
2022/10/21 18:48:19;;;;;;;4.78;2.15;;;18.90;68.60;;;;;;21163550;28;20055;-65
2022/10/21 18:58:20;;;;;;;6.47;1.65;;;19.00;68.10;;;;;;21163471;28;20043;-66
2022/10/21 19:08:22;;;;;;;7.60;3.17;;;19.00;68.60;;;;;;21163593;28;20043;-63
2022/10/21 19:18:24;;;;;;;9.88;2.50;;;18.90;68.90;;;;;;21164027;28;20055;-62
2022/10/21 19:28:26;;;;;;;5.25;2.70;;;18.80;69.40;;;;;;21180287;28;20048;-63
2022/10/21 19:38:30;;;;;;;9.43;3.87;;;18.90;69.40;;;;;;21180209;28;20433;-62
2022/10/21 19:48:35;;;;;;;5.03;2.43;;;18.80;70.10;;;;;;21178383;28;20044;-64
2022/10/21 19:58:40;;;;;;;6.28;2.50;;;18.70;70.60;;;;;;21178633;28;20488;-63
2022/10/21 20:08:42;;;;;;;6.00;2.22;;;18.60;70.30;;;;;;21177699;28;20047;-66
2022/10/21 20:18:44;;;;;;;6.63;2.88;;;18.70;70.40;;;;;;21177780;28;20055;-64
2022/10/21 20:28:46;;;;;;;7.20;3.47;;;18.60;70.80;;;;;;21175765;28;20051;-63
2022/10/21 20:38:49;;;;;;;8.35;3.92;;;18.60;70.70;;;;;;21173933;28;20089;-63
2022/10/21 20:48:52;;;;;;;7.90;2.40;;;18.50;72.00;;;;;;21174644;28;20051;-64
2022/10/21 20:58:55;;;;;;;6.03;3.17;;;18.40;72.90;;;;;;21175899;28;20082;-63
2022/10/21 21:08:57;;;;;;;11.25;5.18;;;18.40;73.60;;;;;;21173973;28;20047;-63
2022/10/21 21:19:03;;;;;;;9.10;4.40;;;18.40;74.40;;;;;;21173403;28;20052;-62
2022/10/21 21:29:07;;;;;;;8.65;3.63;;;18.40;74.20;;;;;;21171070;28;20083;-66
2022/10/21 21:39:10;;;;;;;13.17;5.10;;;18.30;74.40;;;;;;21170318;28;20465;-63
2022/10/21 21:49:11;;;;;;;9.93;5.22;;;18.30;74.50;;;;;;21169187;28;20503;-63
2022/10/21 21:59:15;;;;;;;8.97;4.70;;;18.40;75.00;;;;;;21169995;28;20146;-62
2022/10/21 22:09:17;;;;;;;9.55;4.80;;;18.30;75.10;;;;;;21169358;28;20461;-64
2022/10/21 22:19:19;;;;;;;9.32;4.03;;;18.20;75.90;;;;;;21168291;28;20479;-61
2022/10/21 22:29:21;;;;;;;18.88;13.07;;;18.10;75.10;;;;;;21166955;28;20047;-62
2022/10/21 22:39:23;;;;;;;7.00;3.92;;;18.10;75.40;;;;;;21166554;28;20078;-62
2022/10/21 22:49:24;;;;;;;8.50;3.97;;;18.00;75.80;;;;;;21164592;28;20415;-62
2022/10/21 22:59:26;;;;;;;7.25;2.40;;;18.00;76.50;;;;;;21164980;28;20044;-64
2022/10/21 23:09:27;;;;;;;6.68;2.35;;;18.00;75.50;;;;;;21166699;28;20051;-63
2022/10/21 23:19:29;;;;;;;4.47;2.30;;;17.90;74.90;;;;;;21166541;28;20402;-63
2022/10/21 23:29:30;;;;;;;6.05;2.55;;;17.80;75.50;;;;;;21163361;28;20089;-62
2022/10/21 23:39:32;;;;;;;4.72;2.28;;;17.90;75.60;;;;;;21162575;28;20092;-63
2022/10/21 23:49:34;;;;;;;6.70;2.72;;;17.80;75.60;;;;;;21162078;28;20104;-62
2022/10/21 23:59:35;;;;;;;5.50;2.28;;;17.80;75.80;;;;;;21162844;28;20040;-62
